sensor_id;sensor_type;location;lat;lon;timestamp;P1;durP1;ratioP1;P2;durP2;ratioP2
35312;SDS011;21425;50.454;30.466;2022-08-19T00:01:31;10.80;;;5.57;;
35312;SDS011;21425;50.454;30.466;2022-08-19T00:03:59;12.27;;;5.18;;
35312;SDS011;21425;50.454;30.466;2022-08-19T00:06:27;17.17;;;5.90;;
35312;SDS011;21425;50.454;30.466;2022-08-19T00:08:53;14.55;;;6.15;;
35312;SDS011;21425;50.454;30.466;2022-08-19T00:11:20;13.25;;;4.97;;
35312;SDS011;21425;50.454;30.466;2022-08-19T00:13:46;16.85;;;6.20;;
35312;SDS011;21425;50.454;30.466;2022-08-19T00:16:13;11.38;;;5.43;;
35312;SDS011;21425;50.454;30.466;2022-08-19T00:18:40;15.57;;;6.47;;
35312;SDS011;21425;50.454;30.466;2022-08-19T00:21:06;11.10;;;4.97;;
35312;SDS011;21425;50.454;30.466;2022-08-19T00:23:32;10.07;;;5.70;;
35312;SDS011;21425;50.454;30.466;2022-08-19T00:25:59;11.88;;;6.05;;
35312;SDS011;21425;50.454;30.466;2022-08-19T00:28:25;11.23;;;5.43;;
35312;SDS011;21425;50.454;30.466;2022-08-19T00:30:51;11.57;;;5.63;;
35312;SDS011;21425;50.454;30.466;2022-08-19T00:33:18;11.68;;;5.97;;
35312;SDS011;21425;50.454;30.466;2022-08-19T00:35:44;11.82;;;6.15;;
35312;SDS011;21425;50.454;30.466;2022-08-19T00:38:09;17.65;;;5.55;;
35312;SDS011;21425;50.454;30.466;2022-08-19T00:40:35;18.25;;;6.13;;
35312;SDS011;21425;50.454;30.466;2022-08-19T00:43:01;9.68;;;5.43;;
35312;SDS011;21425;50.454;30.466;2022-08-19T00:45:32;17.13;;;7.20;;
35312;SDS011;21425;50.454;30.466;2022-08-19T00:48:00;10.32;;;6.25;;
35312;SDS011;21425;50.454;30.466;2022-08-19T00:50:29;16.13;;;5.97;;
35312;SDS011;21425;50.454;30.466;2022-08-19T00:52:55;14.43;;;5.65;;
35312;SDS011;21425;50.454;30.466;2022-08-19T00:55:25;18.08;;;7.30;;
35312;SDS011;21425;50.454;30.466;2022-08-19T00:57:58;15.18;;;5.72;;
35312;SDS011;21425;50.454;30.466;2022-08-19T01:00:30;18.30;;;6.22;;
35312;SDS011;21425;50.454;30.466;2022-08-19T01:02:56;14.93;;;6.82;;
35312;SDS011;21425;50.454;30.466;2022-08-19T01:05:24;12.25;;;6.00;;
35312;SDS011;21425;50.454;30.466;2022-08-19T01:07:53;10.63;;;6.30;;
35312;SDS011;21425;50.454;30.466;2022-08-19T01:10:21;8.05;;;5.80;;
35312;SDS011;21425;50.454;30.466;2022-08-19T01:12:51;15.00;;;5.88;;
35312;SDS011;21425;50.454;30.466;2022-08-19T01:15:19;12.00;;;5.95;;
35312;SDS011;21425;50.454;30.466;2022-08-19T01:17:48;13.30;;;6.40;;
35312;SDS011;21425;50.454;30.466;2022-08-19T01:20:15;14.77;;;6.53;;
35312;SDS011;21425;50.454;30.466;2022-08-19T01:22:54;16.15;;;6.90;;
35312;SDS011;21425;50.454;30.466;2022-08-19T01:25:24;10.23;;;6.05;;
35312;SDS011;21425;50.454;30.466;2022-08-19T01:27:54;11.65;;;6.43;;
35312;SDS011;21425;50.454;30.466;2022-08-19T01:30:26;14.65;;;6.30;;
35312;SDS011;21425;50.454;30.466;2022-08-19T01:32:55;10.00;;;6.00;;
35312;SDS011;21425;50.454;30.466;2022-08-19T01:35:22;14.70;;;7.00;;
35312;SDS011;21425;50.454;30.466;2022-08-19T01:37:51;11.48;;;6.15;;
35312;SDS011;21425;50.454;30.466;2022-08-19T01:40:30;11.30;;;6.10;;
35312;SDS011;21425;50.454;30.466;2022-08-19T01:42:58;15.57;;;6.25;;
35312;SDS011;21425;50.454;30.466;2022-08-19T01:45:25;11.50;;;6.20;;
35312;SDS011;21425;50.454;30.466;2022-08-19T01:47:53;11.95;;;6.68;;
35312;SDS011;21425;50.454;30.466;2022-08-19T01:50:19;14.40;;;6.47;;
35312;SDS011;21425;50.454;30.466;2022-08-19T01:52:46;15.38;;;6.50;;
35312;SDS011;21425;50.454;30.466;2022-08-19T01:55:13;12.35;;;6.53;;
35312;SDS011;21425;50.454;30.466;2022-08-19T01:57:43;15.20;;;7.05;;
35312;SDS011;21425;50.454;30.466;2022-08-19T02:00:16;12.40;;;6.50;;
35312;SDS011;21425;50.454;30.466;2022-08-19T02:02:44;10.35;;;7.40;;
35312;SDS011;21425;50.454;30.466;2022-08-19T02:05:10;18.38;;;7.25;;
35312;SDS011;21425;50.454;30.466;2022-08-19T02:07:38;14.20;;;6.38;;
35312;SDS011;21425;50.454;30.466;2022-08-19T02:10:09;16.70;;;7.43;;
35312;SDS011;21425;50.454;30.466;2022-08-19T02:12:39;11.52;;;6.65;;
35312;SDS011;21425;50.454;30.466;2022-08-19T02:15:05;15.45;;;7.07;;
35312;SDS011;21425;50.454;30.466;2022-08-19T02:17:32;11.48;;;6.50;;
35312;SDS011;21425;50.454;30.466;2022-08-19T02:19:58;17.10;;;6.63;;
35312;SDS011;21425;50.454;30.466;2022-08-19T02:22:24;12.50;;;7.38;;
35312;SDS011;21425;50.454;30.466;2022-08-19T02:24:53;10.85;;;6.45;;
35312;SDS011;21425;50.454;30.466;2022-08-19T02:27:20;13.63;;;6.53;;
35312;SDS011;21425;50.454;30.466;2022-08-19T02:29:46;14.77;;;6.65;;
35312;SDS011;21425;50.454;30.466;2022-08-19T02:32:14;14.98;;;7.45;;
35312;SDS011;21425;50.454;30.466;2022-08-19T02:34:40;14.45;;;7.00;;
35312;SDS011;21425;50.454;30.466;2022-08-19T02:37:06;14.82;;;7.55;;
35312;SDS011;21425;50.454;30.466;2022-08-19T02:39:52;12.38;;;6.85;;
35312;SDS011;21425;50.454;30.466;2022-08-19T02:42:17;18.08;;;7.40;;
35312;SDS011;21425;50.454;30.466;2022-08-19T02:44:43;13.45;;;6.65;;
35312;SDS011;21425;50.454;30.466;2022-08-19T02:47:09;9.85;;;6.32;;
35312;SDS011;21425;50.454;30.466;2022-08-19T02:49:35;13.48;;;6.88;;
35312;SDS011;21425;50.454;30.466;2022-08-19T02:52:01;11.30;;;6.78;;
35312;SDS011;21425;50.454;30.466;2022-08-19T02:54:27;10.93;;;7.32;;
35312;SDS011;21425;50.454;30.466;2022-08-19T02:56:53;13.10;;;7.05;;
35312;SDS011;21425;50.454;30.466;2022-08-19T02:59:19;11.85;;;7.10;;
35312;SDS011;21425;50.454;30.466;2022-08-19T03:01:45;15.27;;;7.80;;
35312;SDS011;21425;50.454;30.466;2022-08-19T03:04:11;11.68;;;7.35;;
35312;SDS011;21425;50.454;30.466;2022-08-19T03:06:39;15.32;;;6.85;;
35312;SDS011;21425;50.454;30.466;2022-08-19T03:09:07;14.63;;;6.95;;
35312;SDS011;21425;50.454;30.466;2022-08-19T03:11:33;16.30;;;7.03;;
35312;SDS011;21425;50.454;30.466;2022-08-19T03:13:59;14.27;;;7.35;;
35312;SDS011;21425;50.454;30.466;2022-08-19T03:16:25;13.38;;;7.05;;
35312;SDS011;21425;50.454;30.466;2022-08-19T03:18:52;12.52;;;6.80;;
35312;SDS011;21425;50.454;30.466;2022-08-19T03:21:20;11.57;;;7.47;;
35312;SDS011;21425;50.454;30.466;2022-08-19T03:23:49;11.68;;;7.75;;
35312;SDS011;21425;50.454;30.466;2022-08-19T03:26:15;13.10;;;7.05;;
35312;SDS011;21425;50.454;30.466;2022-08-19T03:28:41;10.38;;;6.97;;
35312;SDS011;21425;50.454;30.466;2022-08-19T03:31:10;13.40;;;6.85;;
35312;SDS011;21425;50.454;30.466;2022-08-19T03:33:37;13.43;;;6.55;;
35312;SDS011;21425;50.454;30.466;2022-08-19T03:38:44;16.30;;;6.30;;
35312;SDS011;21425;50.454;30.466;2022-08-19T03:41:16;13.35;;;6.43;;
35312;SDS011;21425;50.454;30.466;2022-08-19T03:43:46;10.48;;;7.28;;
35312;SDS011;21425;50.454;30.466;2022-08-19T03:46:14;15.88;;;6.40;;
35312;SDS011;21425;50.454;30.466;2022-08-19T03:48:42;13.82;;;6.72;;
35312;SDS011;21425;50.454;30.466;2022-08-19T03:51:16;13.05;;;6.63;;
35312;SDS011;21425;50.454;30.466;2022-08-19T03:53:44;11.20;;;6.55;;
35312;SDS011;21425;50.454;30.466;2022-08-19T03:56:11;14.35;;;6.90;;
35312;SDS011;21425;50.454;30.466;2022-08-19T03:58:37;10.13;;;6.47;;
35312;SDS011;21425;50.454;30.466;2022-08-19T04:01:07;16.15;;;7.75;;
35312;SDS011;21425;50.454;30.466;2022-08-19T04:03:35;14.82;;;7.55;;
35312;SDS011;21425;50.454;30.466;2022-08-19T04:06:09;15.00;;;6.82;;
35312;SDS011;21425;50.454;30.466;2022-08-19T04:08:36;11.85;;;6.40;;
35312;SDS011;21425;50.454;30.466;2022-08-19T04:11:06;11.30;;;6.35;;
35312;SDS011;21425;50.454;30.466;2022-08-19T04:13:32;22.55;;;6.63;;
35312;SDS011;21425;50.454;30.466;2022-08-19T04:15:59;14.70;;;6.13;;
35312;SDS011;21425;50.454;30.466;2022-08-19T04:18:24;18.42;;;6.13;;
35312;SDS011;21425;50.454;30.466;2022-08-19T04:20:51;10.38;;;5.43;;
35312;SDS011;21425;50.454;30.466;2022-08-19T04:23:17;13.95;;;6.18;;
35312;SDS011;21425;50.454;30.466;2022-08-19T04:25:43;13.25;;;5.80;;
35312;SDS011;21425;50.454;30.466;2022-08-19T04:28:10;12.32;;;5.88;;
35312;SDS011;21425;50.454;30.466;2022-08-19T04:30:47;14.82;;;6.28;;
35312;SDS011;21425;50.454;30.466;2022-08-19T04:33:15;14.13;;;5.55;;
35312;SDS011;21425;50.454;30.466;2022-08-19T04:35:44;16.88;;;6.15;;
35312;SDS011;21425;50.454;30.466;2022-08-19T04:38:12;11.93;;;6.07;;
35312;SDS011;21425;50.454;30.466;2022-08-19T04:40:42;13.82;;;6.45;;
35312;SDS011;21425;50.454;30.466;2022-08-19T04:43:32;16.10;;;6.63;;
35312;SDS011;21425;50.454;30.466;2022-08-19T04:45:58;12.70;;;6.82;;
35312;SDS011;21425;50.454;30.466;2022-08-19T04:48:38;9.85;;;5.55;;
35312;SDS011;21425;50.454;30.466;2022-08-19T04:51:09;10.60;;;6.05;;
35312;SDS011;21425;50.454;30.466;2022-08-19T04:53:37;11.73;;;6.18;;
35312;SDS011;21425;50.454;30.466;2022-08-19T04:56:06;11.43;;;5.63;;
35312;SDS011;21425;50.454;30.466;2022-08-19T04:58:34;13.55;;;5.53;;
35312;SDS011;21425;50.454;30.466;2022-08-19T05:01:00;11.52;;;6.07;;
35312;SDS011;21425;50.454;30.466;2022-08-19T05:03:27;12.80;;;6.03;;
35312;SDS011;21425;50.454;30.466;2022-08-19T05:05:58;11.32;;;5.57;;
35312;SDS011;21425;50.454;30.466;2022-08-19T05:10:58;10.82;;;5.97;;
35312;SDS011;21425;50.454;30.466;2022-08-19T05:13:24;12.38;;;5.93;;
35312;SDS011;21425;50.454;30.466;2022-08-19T05:15:55;10.80;;;5.97;;
35312;SDS011;21425;50.454;30.466;2022-08-19T05:18:23;14.20;;;6.18;;
35312;SDS011;21425;50.454;30.466;2022-08-19T05:23:52;14.43;;;5.95;;
35312;SDS011;21425;50.454;30.466;2022-08-19T05:26:17;9.52;;;5.32;;
35312;SDS011;21425;50.454;30.466;2022-08-19T05:28:43;11.13;;;6.57;;
35312;SDS011;21425;50.454;30.466;2022-08-19T05:31:09;11.50;;;6.47;;
35312;SDS011;21425;50.454;30.466;2022-08-19T05:33:35;15.93;;;6.13;;
35312;SDS011;21425;50.454;30.466;2022-08-19T05:36:01;9.50;;;5.43;;
35312;SDS011;21425;50.454;30.466;2022-08-19T05:38:27;10.85;;;6.00;;
35312;SDS011;21425;50.454;30.466;2022-08-19T05:40:55;10.93;;;6.20;;
35312;SDS011;21425;50.454;30.466;2022-08-19T05:43:20;16.40;;;5.85;;
35312;SDS011;21425;50.454;30.466;2022-08-19T05:45:46;11.90;;;5.72;;
35312;SDS011;21425;50.454;30.466;2022-08-19T05:48:12;10.73;;;5.60;;
35312;SDS011;21425;50.454;30.466;2022-08-19T05:50:39;13.05;;;5.70;;
35312;SDS011;21425;50.454;30.466;2022-08-19T05:53:06;12.27;;;5.93;;
35312;SDS011;21425;50.454;30.466;2022-08-19T05:55:33;7.45;;;5.45;;
35312;SDS011;21425;50.454;30.466;2022-08-19T05:58:01;13.02;;;5.88;;
35312;SDS011;21425;50.454;30.466;2022-08-19T06:00:27;9.85;;;5.78;;
35312;SDS011;21425;50.454;30.466;2022-08-19T06:02:56;14.60;;;5.80;;
35312;SDS011;21425;50.454;30.466;2022-08-19T06:05:24;12.13;;;5.60;;
35312;SDS011;21425;50.454;30.466;2022-08-19T06:07:50;13.82;;;5.50;;
35312;SDS011;21425;50.454;30.466;2022-08-19T06:10:16;10.43;;;4.97;;
35312;SDS011;21425;50.454;30.466;2022-08-19T06:12:41;10.40;;;6.05;;
35312;SDS011;21425;50.454;30.466;2022-08-19T06:15:09;19.33;;;6.00;;
35312;SDS011;21425;50.454;30.466;2022-08-19T06:17:38;14.15;;;5.45;;
35312;SDS011;21425;50.454;30.466;2022-08-19T06:20:05;13.70;;;5.18;;
35312;SDS011;21425;50.454;30.466;2022-08-19T06:22:31;13.10;;;5.28;;
35312;SDS011;21425;50.454;30.466;2022-08-19T06:25:03;10.23;;;5.35;;
35312;SDS011;21425;50.454;30.466;2022-08-19T06:27:29;12.63;;;5.60;;
35312;SDS011;21425;50.454;30.466;2022-08-19T06:29:56;15.48;;;6.55;;
35312;SDS011;21425;50.454;30.466;2022-08-19T06:32:22;9.18;;;5.20;;
35312;SDS011;21425;50.454;30.466;2022-08-19T06:34:48;17.85;;;6.10;;
35312;SDS011;21425;50.454;30.466;2022-08-19T06:37:14;14.30;;;5.68;;
35312;SDS011;21425;50.454;30.466;2022-08-19T06:39:43;9.70;;;5.38;;
35312;SDS011;21425;50.454;30.466;2022-08-19T06:42:09;17.92;;;4.93;;
35312;SDS011;21425;50.454;30.466;2022-08-19T06:44:38;8.73;;;4.90;;
35312;SDS011;21425;50.454;30.466;2022-08-19T06:47:06;15.55;;;5.82;;
35312;SDS011;21425;50.454;30.466;2022-08-19T06:49:33;17.75;;;5.38;;
35312;SDS011;21425;50.454;30.466;2022-08-19T06:52:00;15.30;;;4.90;;
35312;SDS011;21425;50.454;30.466;2022-08-19T06:54:26;8.63;;;5.03;;
35312;SDS011;21425;50.454;30.466;2022-08-19T06:56:56;13.80;;;6.13;;
35312;SDS011;21425;50.454;30.466;2022-08-19T06:59:23;14.60;;;6.00;;
35312;SDS011;21425;50.454;30.466;2022-08-19T07:01:53;9.63;;;5.60;;
35312;SDS011;21425;50.454;30.466;2022-08-19T07:04:22;11.13;;;6.28;;
35312;SDS011;21425;50.454;30.466;2022-08-19T07:06:50;11.38;;;5.93;;
35312;SDS011;21425;50.454;30.466;2022-08-19T07:09:21;14.85;;;5.47;;
35312;SDS011;21425;50.454;30.466;2022-08-19T07:11:48;17.65;;;5.70;;
35312;SDS011;21425;50.454;30.466;2022-08-19T07:14:17;12.23;;;5.53;;
35312;SDS011;21425;50.454;30.466;2022-08-19T07:16:45;13.80;;;5.70;;
35312;SDS011;21425;50.454;30.466;2022-08-19T07:19:12;15.75;;;6.00;;
35312;SDS011;21425;50.454;30.466;2022-08-19T07:21:38;15.95;;;5.80;;
35312;SDS011;21425;50.454;30.466;2022-08-19T07:24:04;13.10;;;6.07;;
35312;SDS011;21425;50.454;30.466;2022-08-19T07:26:31;13.23;;;6.65;;
35312;SDS011;21425;50.454;30.466;2022-08-19T07:28:58;11.40;;;5.38;;
35312;SDS011;21425;50.454;30.466;2022-08-19T07:31:25;13.20;;;5.80;;
35312;SDS011;21425;50.454;30.466;2022-08-19T07:33:52;12.95;;;6.00;;
35312;SDS011;21425;50.454;30.466;2022-08-19T07:36:21;12.93;;;5.75;;
35312;SDS011;21425;50.454;30.466;2022-08-19T07:38:49;15.15;;;5.93;;
35312;SDS011;21425;50.454;30.466;2022-08-19T07:41:17;13.30;;;5.40;;
35312;SDS011;21425;50.454;30.466;2022-08-19T07:43:45;11.93;;;5.72;;
35312;SDS011;21425;50.454;30.466;2022-08-19T07:46:12;9.75;;;5.25;;
35312;SDS011;21425;50.454;30.466;2022-08-19T07:48:38;13.90;;;5.30;;
35312;SDS011;21425;50.454;30.466;2022-08-19T07:51:10;11.20;;;5.75;;
35312;SDS011;21425;50.454;30.466;2022-08-19T07:53:38;13.00;;;5.70;;
35312;SDS011;21425;50.454;30.466;2022-08-19T07:56:05;13.23;;;6.10;;
35312;SDS011;21425;50.454;30.466;2022-08-19T07:58:32;16.27;;;6.13;;
35312;SDS011;21425;50.454;30.466;2022-08-19T08:01:01;14.80;;;5.68;;
35312;SDS011;21425;50.454;30.466;2022-08-19T08:03:28;13.85;;;5.75;;
35312;SDS011;21425;50.454;30.466;2022-08-19T08:06:13;16.08;;;5.93;;
35312;SDS011;21425;50.454;30.466;2022-08-19T08:08:59;19.08;;;6.03;;
35312;SDS011;21425;50.454;30.466;2022-08-19T08:11:38;16.23;;;5.53;;
35312;SDS011;21425;50.454;30.466;2022-08-19T08:14:14;8.77;;;5.00;;
35312;SDS011;21425;50.454;30.466;2022-08-19T08:16:45;19.20;;;5.20;;
35312;SDS011;21425;50.454;30.466;2022-08-19T08:19:11;16.80;;;6.03;;
35312;SDS011;21425;50.454;30.466;2022-08-19T08:21:41;10.00;;;5.78;;
35312;SDS011;21425;50.454;30.466;2022-08-19T08:24:08;14.52;;;4.78;;
35312;SDS011;21425;50.454;30.466;2022-08-19T08:26:34;12.80;;;5.45;;
35312;SDS011;21425;50.454;30.466;2022-08-19T08:29:00;8.93;;;5.10;;
35312;SDS011;21425;50.454;30.466;2022-08-19T08:31:26;9.02;;;4.97;;
35312;SDS011;21425;50.454;30.466;2022-08-19T08:33:52;13.32;;;4.78;;
35312;SDS011;21425;50.454;30.466;2022-08-19T08:36:17;19.48;;;6.25;;
35312;SDS011;21425;50.454;30.466;2022-08-19T08:38:43;15.32;;;5.68;;
35312;SDS011;21425;50.454;30.466;2022-08-19T08:41:53;19.00;;;5.60;;
35312;SDS011;21425;50.454;30.466;2022-08-19T08:44:02;12.85;;;5.43;;
35312;SDS011;21425;50.454;30.466;2022-08-19T08:49:23;16.70;;;5.43;;
35312;SDS011;21425;50.454;30.466;2022-08-19T08:52:18;19.27;;;6.50;;
35312;SDS011;21425;50.454;30.466;2022-08-19T08:54:54;11.27;;;6.13;;
35312;SDS011;21425;50.454;30.466;2022-08-19T08:57:32;17.52;;;5.55;;
35312;SDS011;21425;50.454;30.466;2022-08-19T09:00:05;13.82;;;5.65;;
35312;SDS011;21425;50.454;30.466;2022-08-19T09:02:35;12.55;;;5.15;;
35312;SDS011;21425;50.454;30.466;2022-08-19T09:05:01;17.02;;;6.10;;
35312;SDS011;21425;50.454;30.466;2022-08-19T09:09:57;13.02;;;5.07;;
35312;SDS011;21425;50.454;30.466;2022-08-19T09:15:46;14.27;;;5.95;;
35312;SDS011;21425;50.454;30.466;2022-08-19T09:18:13;16.90;;;5.68;;
35312;SDS011;21425;50.454;30.466;2022-08-19T09:20:40;16.92;;;5.05;;
35312;SDS011;21425;50.454;30.466;2022-08-19T09:23:05;14.48;;;5.45;;
35312;SDS011;21425;50.454;30.466;2022-08-19T09:25:31;12.98;;;5.45;;
35312;SDS011;21425;50.454;30.466;2022-08-19T09:27:59;15.00;;;5.63;;
35312;SDS011;21425;50.454;30.466;2022-08-19T09:30:29;15.00;;;5.55;;
35312;SDS011;21425;50.454;30.466;2022-08-19T09:32:58;11.07;;;5.30;;
35312;SDS011;21425;50.454;30.466;2022-08-19T09:35:26;10.70;;;4.78;;
35312;SDS011;21425;50.454;30.466;2022-08-19T09:37:54;12.85;;;5.68;;
35312;SDS011;21425;50.454;30.466;2022-08-19T09:40:21;13.02;;;5.45;;
35312;SDS011;21425;50.454;30.466;2022-08-19T09:42:48;8.93;;;5.85;;
35312;SDS011;21425;50.454;30.466;2022-08-19T09:45:14;12.18;;;4.93;;
35312;SDS011;21425;50.454;30.466;2022-08-19T09:47:41;11.65;;;5.18;;
35312;SDS011;21425;50.454;30.466;2022-08-19T09:50:08;18.10;;;5.97;;
35312;SDS011;21425;50.454;30.466;2022-08-19T09:52:36;18.40;;;5.93;;
35312;SDS011;21425;50.454;30.466;2022-08-19T09:55:05;9.65;;;5.05;;
35312;SDS011;21425;50.454;30.466;2022-08-19T09:57:32;11.27;;;5.80;;
35312;SDS011;21425;50.454;30.466;2022-08-19T09:59:58;10.45;;;5.63;;
35312;SDS011;21425;50.454;30.466;2022-08-19T10:02:23;16.55;;;5.93;;
35312;SDS011;21425;50.454;30.466;2022-08-19T10:04:49;13.13;;;5.30;;
35312;SDS011;21425;50.454;30.466;2022-08-19T10:07:34;13.70;;;6.25;;
35312;SDS011;21425;50.454;30.466;2022-08-19T10:10:02;14.25;;;5.38;;
35312;SDS011;21425;50.454;30.466;2022-08-19T10:12:29;10.50;;;5.32;;
35312;SDS011;21425;50.454;30.466;2022-08-19T10:14:55;11.90;;;5.25;;
35312;SDS011;21425;50.454;30.466;2022-08-19T10:17:21;20.27;;;5.28;;
35312;SDS011;21425;50.454;30.466;2022-08-19T10:19:46;11.30;;;5.43;;
35312;SDS011;21425;50.454;30.466;2022-08-19T10:22:12;12.15;;;5.32;;
35312;SDS011;21425;50.454;30.466;2022-08-19T10:24:39;8.38;;;4.80;;
35312;SDS011;21425;50.454;30.466;2022-08-19T10:27:05;11.30;;;5.43;;
35312;SDS011;21425;50.454;30.466;2022-08-19T10:29:31;16.52;;;5.03;;
35312;SDS011;21425;50.454;30.466;2022-08-19T10:32:03;12.10;;;5.55;;
35312;SDS011;21425;50.454;30.466;2022-08-19T10:34:33;11.13;;;4.70;;
35312;SDS011;21425;50.454;30.466;2022-08-19T10:37:01;12.93;;;5.72;;
35312;SDS011;21425;50.454;30.466;2022-08-19T10:39:34;13.07;;;5.78;;
35312;SDS011;21425;50.454;30.466;2022-08-19T10:42:04;18.13;;;5.78;;
35312;SDS011;21425;50.454;30.466;2022-08-19T10:44:32;15.25;;;5.68;;
35312;SDS011;21425;50.454;30.466;2022-08-19T10:47:01;9.02;;;5.03;;
35312;SDS011;21425;50.454;30.466;2022-08-19T10:49:27;10.82;;;4.80;;
35312;SDS011;21425;50.454;30.466;2022-08-19T10:51:53;9.57;;;4.65;;
35312;SDS011;21425;50.454;30.466;2022-08-19T10:54:37;14.05;;;5.07;;
35312;SDS011;21425;50.454;30.466;2022-08-19T10:57:21;11.40;;;5.40;;
35312;SDS011;21425;50.454;30.466;2022-08-19T10:59:52;13.75;;;5.10;;
35312;SDS011;21425;50.454;30.466;2022-08-19T11:02:17;10.57;;;5.03;;
35312;SDS011;21425;50.454;30.466;2022-08-19T11:04:43;11.23;;;5.05;;
35312;SDS011;21425;50.454;30.466;2022-08-19T11:07:09;11.75;;;4.95;;
35312;SDS011;21425;50.454;30.466;2022-08-19T11:09:37;10.40;;;4.90;;
35312;SDS011;21425;50.454;30.466;2022-08-19T11:12:05;7.82;;;4.68;;
35312;SDS011;21425;50.454;30.466;2022-08-19T11:14:33;12.05;;;4.78;;
35312;SDS011;21425;50.454;30.466;2022-08-19T11:16:59;9.18;;;4.32;;
35312;SDS011;21425;50.454;30.466;2022-08-19T11:19:26;17.10;;;4.80;;
35312;SDS011;21425;50.454;30.466;2022-08-19T11:21:52;9.98;;;3.85;;
35312;SDS011;21425;50.454;30.466;2022-08-19T11:24:20;9.50;;;4.22;;
35312;SDS011;21425;50.454;30.466;2022-08-19T11:26:48;16.50;;;4.55;;
35312;SDS011;21425;50.454;30.466;2022-08-19T11:29:15;9.55;;;4.82;;
35312;SDS011;21425;50.454;30.466;2022-08-19T11:31:44;12.63;;;4.40;;
35312;SDS011;21425;50.454;30.466;2022-08-19T11:34:12;7.40;;;4.00;;
35312;SDS011;21425;50.454;30.466;2022-08-19T11:36:42;7.82;;;4.25;;
35312;SDS011;21425;50.454;30.466;2022-08-19T11:39:10;11.20;;;4.57;;
35312;SDS011;21425;50.454;30.466;2022-08-19T11:41:39;10.48;;;4.40;;
35312;SDS011;21425;50.454;30.466;2022-08-19T11:44:05;11.70;;;4.47;;
35312;SDS011;21425;50.454;30.466;2022-08-19T11:46:33;11.98;;;4.50;;
35312;SDS011;21425;50.454;30.466;2022-08-19T11:48:59;8.43;;;3.85;;
35312;SDS011;21425;50.454;30.466;2022-08-19T11:51:26;9.52;;;4.63;;
35312;SDS011;21425;50.454;30.466;2022-08-19T11:53:53;8.68;;;4.20;;
35312;SDS011;21425;50.454;30.466;2022-08-19T11:56:20;15.27;;;4.93;;
35312;SDS011;21425;50.454;30.466;2022-08-19T11:58:47;13.82;;;5.47;;
35312;SDS011;21425;50.454;30.466;2022-08-19T12:01:15;9.73;;;4.22;;
35312;SDS011;21425;50.454;30.466;2022-08-19T12:03:42;14.93;;;4.63;;
35312;SDS011;21425;50.454;30.466;2022-08-19T12:06:11;11.40;;;4.75;;
35312;SDS011;21425;50.454;30.466;2022-08-19T12:08:41;9.48;;;4.43;;
35312;SDS011;21425;50.454;30.466;2022-08-19T12:11:08;13.73;;;5.20;;
35312;SDS011;21425;50.454;30.466;2022-08-19T12:13:35;13.13;;;4.38;;
35312;SDS011;21425;50.454;30.466;2022-08-19T12:16:06;9.45;;;4.28;;
35312;SDS011;21425;50.454;30.466;2022-08-19T12:18:39;14.27;;;4.60;;
35312;SDS011;21425;50.454;30.466;2022-08-19T12:21:11;12.90;;;5.15;;
35312;SDS011;21425;50.454;30.466;2022-08-19T12:23:41;9.18;;;4.53;;
35312;SDS011;21425;50.454;30.466;2022-08-19T12:26:08;9.73;;;4.85;;
35312;SDS011;21425;50.454;30.466;2022-08-19T12:28:35;21.95;;;5.25;;
35312;SDS011;21425;50.454;30.466;2022-08-19T12:31:02;12.65;;;4.65;;
35312;SDS011;21425;50.454;30.466;2022-08-19T12:33:27;9.23;;;4.30;;
35312;SDS011;21425;50.454;30.466;2022-08-19T12:35:53;24.67;;;6.50;;
35312;SDS011;21425;50.454;30.466;2022-08-19T12:38:24;10.75;;;4.65;;
35312;SDS011;21425;50.454;30.466;2022-08-19T12:40:50;12.20;;;4.93;;
35312;SDS011;21425;50.454;30.466;2022-08-19T12:43:17;12.65;;;4.75;;
35312;SDS011;21425;50.454;30.466;2022-08-19T12:45:44;10.90;;;5.00;;
35312;SDS011;21425;50.454;30.466;2022-08-19T12:48:10;10.13;;;4.75;;
35312;SDS011;21425;50.454;30.466;2022-08-19T12:50:38;12.10;;;4.97;;
35312;SDS011;21425;50.454;30.466;2022-08-19T12:53:05;16.75;;;5.00;;
35312;SDS011;21425;50.454;30.466;2022-08-19T12:55:31;12.93;;;5.10;;
35312;SDS011;21425;50.454;30.466;2022-08-19T12:57:56;11.68;;;4.88;;
35312;SDS011;21425;50.454;30.466;2022-08-19T13:00:22;11.20;;;5.07;;
35312;SDS011;21425;50.454;30.466;2022-08-19T13:02:49;11.07;;;4.55;;
35312;SDS011;21425;50.454;30.466;2022-08-19T13:05:18;13.65;;;4.85;;
35312;SDS011;21425;50.454;30.466;2022-08-19T13:07:49;11.23;;;5.07;;
35312;SDS011;21425;50.454;30.466;2022-08-19T13:10:18;11.05;;;4.88;;
35312;SDS011;21425;50.454;30.466;2022-08-19T13:12:46;8.25;;;5.05;;
35312;SDS011;21425;50.454;30.466;2022-08-19T13:15:13;11.65;;;4.43;;
35312;SDS011;21425;50.454;30.466;2022-08-19T13:17:43;8.98;;;4.10;;
35312;SDS011;21425;50.454;30.466;2022-08-19T13:20:09;10.48;;;5.68;;
35312;SDS011;21425;50.454;30.466;2022-08-19T13:22:36;17.63;;;4.90;;
35312;SDS011;21425;50.454;30.466;2022-08-19T13:25:03;11.82;;;4.85;;
35312;SDS011;21425;50.454;30.466;2022-08-19T13:27:30;9.27;;;5.40;;
35312;SDS011;21425;50.454;30.466;2022-08-19T13:29:56;10.90;;;4.72;;
35312;SDS011;21425;50.454;30.466;2022-08-19T13:32:40;8.82;;;4.78;;
35312;SDS011;21425;50.454;30.466;2022-08-19T13:35:24;8.90;;;5.03;;
35312;SDS011;21425;50.454;30.466;2022-08-19T13:37:50;12.13;;;5.13;;
35312;SDS011;21425;50.454;30.466;2022-08-19T13:40:17;11.90;;;4.65;;
35312;SDS011;21425;50.454;30.466;2022-08-19T13:42:46;13.38;;;4.70;;
35312;SDS011;21425;50.454;30.466;2022-08-19T13:45:14;13.73;;;5.80;;
35312;SDS011;21425;50.454;30.466;2022-08-19T13:47:44;9.82;;;5.50;;
35312;SDS011;21425;50.454;30.466;2022-08-19T13:50:17;14.32;;;5.28;;
35312;SDS011;21425;50.454;30.466;2022-08-19T13:52:45;9.57;;;5.45;;
35312;SDS011;21425;50.454;30.466;2022-08-19T13:55:13;12.27;;;4.80;;
35312;SDS011;21425;50.454;30.466;2022-08-19T13:57:39;12.85;;;5.63;;
35312;SDS011;21425;50.454;30.466;2022-08-19T14:00:07;10.00;;;5.05;;
35312;SDS011;21425;50.454;30.466;2022-08-19T14:02:39;12.75;;;5.82;;
35312;SDS011;21425;50.454;30.466;2022-08-19T14:05:05;12.73;;;5.18;;
35312;SDS011;21425;50.454;30.466;2022-08-19T14:07:33;12.05;;;5.68;;
35312;SDS011;21425;50.454;30.466;2022-08-19T14:09:59;13.18;;;5.45;;
35312;SDS011;21425;50.454;30.466;2022-08-19T14:12:24;10.38;;;5.15;;
35312;SDS011;21425;50.454;30.466;2022-08-19T14:14:50;9.63;;;4.72;;
35312;SDS011;21425;50.454;30.466;2022-08-19T14:17:15;11.68;;;4.90;;
35312;SDS011;21425;50.454;30.466;2022-08-19T14:19:41;9.50;;;5.25;;
35312;SDS011;21425;50.454;30.466;2022-08-19T14:22:07;8.45;;;5.20;;
35312;SDS011;21425;50.454;30.466;2022-08-19T14:24:34;10.80;;;5.38;;
35312;SDS011;21425;50.454;30.466;2022-08-19T14:27:00;9.82;;;5.47;;
35312;SDS011;21425;50.454;30.466;2022-08-19T14:29:25;9.55;;;5.00;;
35312;SDS011;21425;50.454;30.466;2022-08-19T14:31:53;7.43;;;4.90;;
35312;SDS011;21425;50.454;30.466;2022-08-19T14:34:21;10.57;;;4.85;;
35312;SDS011;21425;50.454;30.466;2022-08-19T14:36:47;6.68;;;3.97;;
35312;SDS011;21425;50.454;30.466;2022-08-19T14:39:13;23.38;;;5.40;;
35312;SDS011;21425;50.454;30.466;2022-08-19T14:41:40;12.40;;;5.00;;
35312;SDS011;21425;50.454;30.466;2022-08-19T14:44:07;9.30;;;5.35;;
35312;SDS011;21425;50.454;30.466;2022-08-19T14:46:35;9.10;;;4.53;;